sensor_id;sensor_type;location;lat;lon;timestamp;P1;durP1;ratioP1;P2;durP2;ratioP2
25079;SDS011;13071;48.868;9.996;2022-11-02T00:00:39;5.25;;;3.17;;
25079;SDS011;13071;48.868;9.996;2022-11-02T00:03:06;7.28;;;3.35;;
25079;SDS011;13071;48.868;9.996;2022-11-02T00:05:33;7.18;;;3.22;;
25079;SDS011;13071;48.868;9.996;2022-11-02T00:08:00;4.75;;;3.55;;
25079;SDS011;13071;48.868;9.996;2022-11-02T00:10:26;5.18;;;3.60;;
25079;SDS011;13071;48.868;9.996;2022-11-02T00:12:54;4.60;;;3.10;;
25079;SDS011;13071;48.868;9.996;2022-11-02T00:15:21;5.13;;;3.13;;
25079;SDS011;13071;48.868;9.996;2022-11-02T00:17:53;4.00;;;3.15;;
25079;SDS011;13071;48.868;9.996;2022-11-02T00:20:21;2.90;;;2.42;;
25079;SDS011;13071;48.868;9.996;2022-11-02T00:22:50;5.75;;;2.78;;
25079;SDS011;13071;48.868;9.996;2022-11-02T00:25:21;6.72;;;2.80;;
25079;SDS011;13071;48.868;9.996;2022-11-02T00:27:49;4.65;;;3.13;;
25079;SDS011;13071;48.868;9.996;2022-11-02T00:30:15;5.43;;;3.55;;
25079;SDS011;13071;48.868;9.996;2022-11-02T00:32:42;5.85;;;3.45;;
25079;SDS011;13071;48.868;9.996;2022-11-02T00:35:10;7.55;;;3.90;;
25079;SDS011;13071;48.868;9.996;2022-11-02T00:37:37;7.88;;;3.10;;
25079;SDS011;13071;48.868;9.996;2022-11-02T00:40:04;6.22;;;3.38;;
25079;SDS011;13071;48.868;9.996;2022-11-02T00:42:31;6.70;;;3.10;;
25079;SDS011;13071;48.868;9.996;2022-11-02T00:44:58;4.93;;;3.00;;
25079;SDS011;13071;48.868;9.996;2022-11-02T00:47:24;9.20;;;2.92;;
25079;SDS011;13071;48.868;9.996;2022-11-02T00:49:51;5.88;;;3.20;;
25079;SDS011;13071;48.868;9.996;2022-11-02T00:52:19;6.85;;;3.88;;
25079;SDS011;13071;48.868;9.996;2022-11-02T00:54:45;6.20;;;3.65;;
25079;SDS011;13071;48.868;9.996;2022-11-02T00:57:12;8.95;;;3.78;;
25079;SDS011;13071;48.868;9.996;2022-11-02T00:59:39;5.28;;;3.13;;
25079;SDS011;13071;48.868;9.996;2022-11-02T01:02:05;6.82;;;3.65;;
25079;SDS011;13071;48.868;9.996;2022-11-02T01:04:32;9.02;;;3.72;;
25079;SDS011;13071;48.868;9.996;2022-11-02T01:06:58;6.85;;;3.70;;
25079;SDS011;13071;48.868;9.996;2022-11-02T01:09:26;6.05;;;3.67;;
25079;SDS011;13071;48.868;9.996;2022-11-02T01:11:53;8.52;;;4.03;;
25079;SDS011;13071;48.868;9.996;2022-11-02T01:14:19;11.48;;;4.03;;
25079;SDS011;13071;48.868;9.996;2022-11-02T01:16:46;6.20;;;3.30;;
25079;SDS011;13071;48.868;9.996;2022-11-02T01:19:13;8.93;;;4.22;;
25079;SDS011;13071;48.868;9.996;2022-11-02T01:21:40;8.60;;;3.10;;
25079;SDS011;13071;48.868;9.996;2022-11-02T01:24:07;9.65;;;3.08;;
25079;SDS011;13071;48.868;9.996;2022-11-02T01:26:35;4.20;;;3.13;;
25079;SDS011;13071;48.868;9.996;2022-11-02T01:29:01;4.50;;;2.88;;
25079;SDS011;13071;48.868;9.996;2022-11-02T01:31:28;7.03;;;3.40;;
25079;SDS011;13071;48.868;9.996;2022-11-02T01:33:55;11.07;;;3.20;;
25079;SDS011;13071;48.868;9.996;2022-11-02T01:36:21;7.53;;;3.60;;
25079;SDS011;13071;48.868;9.996;2022-11-02T01:38:48;5.82;;;3.25;;
25079;SDS011;13071;48.868;9.996;2022-11-02T01:41:15;6.20;;;3.20;;
25079;SDS011;13071;48.868;9.996;2022-11-02T01:43:43;5.20;;;2.78;;
25079;SDS011;13071;48.868;9.996;2022-11-02T01:46:14;3.67;;;2.85;;
25079;SDS011;13071;48.868;9.996;2022-11-02T01:48:44;4.20;;;2.78;;
25079;SDS011;13071;48.868;9.996;2022-11-02T01:51:15;5.97;;;3.28;;
25079;SDS011;13071;48.868;9.996;2022-11-02T01:53:45;8.95;;;3.25;;
25079;SDS011;13071;48.868;9.996;2022-11-02T01:56:15;5.70;;;3.25;;
25079;SDS011;13071;48.868;9.996;2022-11-02T01:58:46;5.35;;;3.05;;
25079;SDS011;13071;48.868;9.996;2022-11-02T02:01:17;6.47;;;3.42;;
25079;SDS011;13071;48.868;9.996;2022-11-02T02:03:43;4.68;;;2.85;;
25079;SDS011;13071;48.868;9.996;2022-11-02T02:06:12;4.55;;;2.53;;
25079;SDS011;13071;48.868;9.996;2022-11-02T02:08:42;4.95;;;2.78;;
25079;SDS011;13071;48.868;9.996;2022-11-02T02:11:22;6.07;;;2.63;;
25079;SDS011;13071;48.868;9.996;2022-11-02T02:13:52;8.10;;;2.67;;
25079;SDS011;13071;48.868;9.996;2022-11-02T02:16:20;5.90;;;2.50;;
25079;SDS011;13071;48.868;9.996;2022-11-02T02:18:54;5.60;;;2.60;;
25079;SDS011;13071;48.868;9.996;2022-11-02T02:21:25;5.30;;;2.97;;
25079;SDS011;13071;48.868;9.996;2022-11-02T02:27:04;7.45;;;2.30;;
25079;SDS011;13071;48.868;9.996;2022-11-02T02:29:42;4.05;;;2.28;;
25079;SDS011;13071;48.868;9.996;2022-11-02T02:32:17;7.18;;;2.35;;
25079;SDS011;13071;48.868;9.996;2022-11-02T02:34:51;7.38;;;2.92;;
25079;SDS011;13071;48.868;9.996;2022-11-02T02:37:23;3.67;;;2.30;;
25079;SDS011;13071;48.868;9.996;2022-11-02T02:39:56;4.97;;;2.50;;
25079;SDS011;13071;48.868;9.996;2022-11-02T02:42:30;2.45;;;2.25;;
25079;SDS011;13071;48.868;9.996;2022-11-02T02:45:03;4.63;;;2.30;;
25079;SDS011;13071;48.868;9.996;2022-11-02T02:47:38;10.45;;;2.83;;
25079;SDS011;13071;48.868;9.996;2022-11-02T02:50:10;6.07;;;2.40;;
25079;SDS011;13071;48.868;9.996;2022-11-02T02:52:41;9.70;;;2.55;;
25079;SDS011;13071;48.868;9.996;2022-11-02T02:55:12;3.65;;;2.45;;
25079;SDS011;13071;48.868;9.996;2022-11-02T02:57:41;7.85;;;2.83;;
25079;SDS011;13071;48.868;9.996;2022-11-02T03:00:12;4.43;;;2.35;;
25079;SDS011;13071;48.868;9.996;2022-11-02T03:02:41;2.92;;;2.30;;
25079;SDS011;13071;48.868;9.996;2022-11-02T03:05:25;3.92;;;2.35;;
25079;SDS011;13071;48.868;9.996;2022-11-02T03:07:54;2.33;;;1.95;;
25079;SDS011;13071;48.868;9.996;2022-11-02T03:10:24;3.83;;;2.40;;
25079;SDS011;13071;48.868;9.996;2022-11-02T03:12:59;3.50;;;2.33;;
25079;SDS011;13071;48.868;9.996;2022-11-02T03:15:37;6.07;;;2.58;;
25079;SDS011;13071;48.868;9.996;2022-11-02T03:18:07;4.22;;;2.10;;
25079;SDS011;13071;48.868;9.996;2022-11-02T03:20:43;7.80;;;2.38;;
25079;SDS011;13071;48.868;9.996;2022-11-02T03:23:25;3.50;;;2.20;;
25079;SDS011;13071;48.868;9.996;2022-11-02T03:25:59;3.85;;;2.15;;
25079;SDS011;13071;48.868;9.996;2022-11-02T03:28:33;8.85;;;2.55;;
25079;SDS011;13071;48.868;9.996;2022-11-02T03:31:11;3.42;;;2.05;;
25079;SDS011;13071;48.868;9.996;2022-11-02T03:33:42;4.43;;;2.28;;
25079;SDS011;13071;48.868;9.996;2022-11-02T03:36:14;5.53;;;2.00;;
25079;SDS011;13071;48.868;9.996;2022-11-02T03:38:46;3.67;;;2.10;;
25079;SDS011;13071;48.868;9.996;2022-11-02T03:41:17;4.00;;;2.05;;
25079;SDS011;13071;48.868;9.996;2022-11-02T03:43:47;3.72;;;2.33;;
25079;SDS011;13071;48.868;9.996;2022-11-02T03:46:19;4.72;;;2.25;;
25079;SDS011;13071;48.868;9.996;2022-11-02T03:48:48;8.18;;;2.78;;
25079;SDS011;13071;48.868;9.996;2022-11-02T03:51:18;5.10;;;2.63;;
25079;SDS011;13071;48.868;9.996;2022-11-02T03:53:47;4.75;;;2.60;;
25079;SDS011;13071;48.868;9.996;2022-11-02T03:56:18;5.70;;;2.95;;
25079;SDS011;13071;48.868;9.996;2022-11-02T03:58:48;3.97;;;1.95;;
25079;SDS011;13071;48.868;9.996;2022-11-02T04:01:14;3.42;;;2.13;;
25079;SDS011;13071;48.868;9.996;2022-11-02T04:03:45;6.93;;;2.47;;
25079;SDS011;13071;48.868;9.996;2022-11-02T04:06:13;4.60;;;2.33;;
25079;SDS011;13071;48.868;9.996;2022-11-02T04:08:41;2.65;;;1.73;;
25079;SDS011;13071;48.868;9.996;2022-11-02T04:11:09;2.88;;;1.88;;
25079;SDS011;13071;48.868;9.996;2022-11-02T04:13:54;2.08;;;1.88;;
25079;SDS011;13071;48.868;9.996;2022-11-02T04:16:38;5.28;;;2.42;;
25079;SDS011;13071;48.868;9.996;2022-11-02T04:19:06;3.85;;;2.30;;
25079;SDS011;13071;48.868;9.996;2022-11-02T04:21:51;3.50;;;2.00;;
25079;SDS011;13071;48.868;9.996;2022-11-02T04:24:35;2.85;;;1.95;;
25079;SDS011;13071;48.868;9.996;2022-11-02T04:27:19;7.20;;;2.17;;
25079;SDS011;13071;48.868;9.996;2022-11-02T04:29:45;2.55;;;2.10;;
25079;SDS011;13071;48.868;9.996;2022-11-02T04:32:12;2.75;;;2.25;;
25079;SDS011;13071;48.868;9.996;2022-11-02T04:34:40;5.90;;;2.05;;
25079;SDS011;13071;48.868;9.996;2022-11-02T04:37:05;5.97;;;2.70;;
25079;SDS011;13071;48.868;9.996;2022-11-02T04:40:01;4.95;;;2.10;;
25079;SDS011;13071;48.868;9.996;2022-11-02T04:42:27;3.33;;;2.47;;
25079;SDS011;13071;48.868;9.996;2022-11-02T04:44:54;8.45;;;2.63;;
25079;SDS011;13071;48.868;9.996;2022-11-02T04:47:20;2.67;;;2.40;;
25079;SDS011;13071;48.868;9.996;2022-11-02T04:49:48;3.72;;;2.58;;
25079;SDS011;13071;48.868;9.996;2022-11-02T04:52:15;6.50;;;2.25;;
25079;SDS011;13071;48.868;9.996;2022-11-02T04:54:41;6.90;;;2.65;;
25079;SDS011;13071;48.868;9.996;2022-11-02T04:57:08;3.20;;;2.45;;
25079;SDS011;13071;48.868;9.996;2022-11-02T04:59:34;4.57;;;2.10;;
25079;SDS011;13071;48.868;9.996;2022-11-02T05:02:01;4.80;;;2.70;;
25079;SDS011;13071;48.868;9.996;2022-11-02T05:04:28;7.43;;;2.75;;
25079;SDS011;13071;48.868;9.996;2022-11-02T05:06:56;6.10;;;2.42;;
25079;SDS011;13071;48.868;9.996;2022-11-02T05:09:22;6.53;;;2.72;;
25079;SDS011;13071;48.868;9.996;2022-11-02T05:11:49;4.72;;;2.20;;
25079;SDS011;13071;48.868;9.996;2022-11-02T05:14:15;2.40;;;2.10;;
25079;SDS011;13071;48.868;9.996;2022-11-02T05:16:42;2.85;;;2.00;;
25079;SDS011;13071;48.868;9.996;2022-11-02T05:19:09;4.05;;;2.28;;
25079;SDS011;13071;48.868;9.996;2022-11-02T05:21:35;3.42;;;2.33;;
25079;SDS011;13071;48.868;9.996;2022-11-02T05:24:03;2.80;;;2.35;;
25079;SDS011;13071;48.868;9.996;2022-11-02T05:26:30;2.22;;;2.00;;
25079;SDS011;13071;48.868;9.996;2022-11-02T05:28:57;4.13;;;2.58;;
25079;SDS011;13071;48.868;9.996;2022-11-02T05:31:24;4.88;;;2.08;;
25079;SDS011;13071;48.868;9.996;2022-11-02T05:33:50;3.53;;;2.30;;
25079;SDS011;13071;48.868;9.996;2022-11-02T05:36:17;4.13;;;1.95;;
25079;SDS011;13071;48.868;9.996;2022-11-02T05:38:44;6.25;;;2.42;;
25079;SDS011;13071;48.868;9.996;2022-11-02T05:41:12;3.20;;;2.15;;
25079;SDS011;13071;48.868;9.996;2022-11-02T05:43:38;5.22;;;2.30;;
25079;SDS011;13071;48.868;9.996;2022-11-02T05:46:05;3.05;;;2.08;;
25079;SDS011;13071;48.868;9.996;2022-11-02T05:48:32;2.90;;;2.05;;
25079;SDS011;13071;48.868;9.996;2022-11-02T05:50:59;3.10;;;2.05;;
25079;SDS011;13071;48.868;9.996;2022-11-02T05:53:26;3.22;;;2.40;;
25079;SDS011;13071;48.868;9.996;2022-11-02T05:55:56;2.50;;;1.73;;
25079;SDS011;13071;48.868;9.996;2022-11-02T05:58:24;3.08;;;1.83;;
25079;SDS011;13071;48.868;9.996;2022-11-02T06:00:51;2.70;;;2.00;;
25079;SDS011;13071;48.868;9.996;2022-11-02T06:03:18;3.85;;;2.00;;
25079;SDS011;13071;48.868;9.996;2022-11-02T06:05:45;3.53;;;2.35;;
25079;SDS011;13071;48.868;9.996;2022-11-02T06:08:11;8.15;;;2.15;;
25079;SDS011;13071;48.868;9.996;2022-11-02T06:10:38;4.05;;;2.20;;
25079;SDS011;13071;48.868;9.996;2022-11-02T06:13:06;2.60;;;2.08;;
25079;SDS011;13071;48.868;9.996;2022-11-02T06:15:34;2.72;;;2.05;;
25079;SDS011;13071;48.868;9.996;2022-11-02T06:18:01;3.50;;;1.98;;
25079;SDS011;13071;48.868;9.996;2022-11-02T06:20:28;2.80;;;2.00;;
25079;SDS011;13071;48.868;9.996;2022-11-02T06:22:54;7.75;;;2.22;;
25079;SDS011;13071;48.868;9.996;2022-11-02T06:25:21;7.55;;;1.90;;
25079;SDS011;13071;48.868;9.996;2022-11-02T06:27:51;2.40;;;2.00;;
25079;SDS011;13071;48.868;9.996;2022-11-02T06:30:19;2.40;;;1.98;;
25079;SDS011;13071;48.868;9.996;2022-11-02T06:32:48;4.18;;;1.85;;
25079;SDS011;13071;48.868;9.996;2022-11-02T06:35:15;9.40;;;1.70;;
25079;SDS011;13071;48.868;9.996;2022-11-02T06:37:43;1.92;;;1.60;;
25079;SDS011;13071;48.868;9.996;2022-11-02T06:40:10;7.47;;;1.85;;
25079;SDS011;13071;48.868;9.996;2022-11-02T06:42:38;13.65;;;1.50;;
25079;SDS011;13071;48.868;9.996;2022-11-02T06:45:06;3.45;;;2.15;;
25079;SDS011;13071;48.868;9.996;2022-11-02T06:47:34;5.97;;;1.60;;
25079;SDS011;13071;48.868;9.996;2022-11-02T06:50:03;3.63;;;1.70;;
25079;SDS011;13071;48.868;9.996;2022-11-02T06:52:31;3.63;;;1.40;;
25079;SDS011;13071;48.868;9.996;2022-11-02T06:54:59;4.40;;;1.70;;
25079;SDS011;13071;48.868;9.996;2022-11-02T06:57:25;3.55;;;1.80;;
25079;SDS011;13071;48.868;9.996;2022-11-02T06:59:52;4.03;;;1.85;;
25079;SDS011;13071;48.868;9.996;2022-11-02T07:02:19;4.68;;;1.55;;
25079;SDS011;13071;48.868;9.996;2022-11-02T07:04:46;4.00;;;2.17;;
25079;SDS011;13071;48.868;9.996;2022-11-02T07:07:15;6.10;;;2.60;;
25079;SDS011;13071;48.868;9.996;2022-11-02T07:09:41;3.63;;;2.30;;
25079;SDS011;13071;48.868;9.996;2022-11-02T07:12:08;6.20;;;2.28;;
25079;SDS011;13071;48.868;9.996;2022-11-02T07:14:35;5.15;;;2.28;;
25079;SDS011;13071;48.868;9.996;2022-11-02T07:17:01;3.97;;;2.08;;
25079;SDS011;13071;48.868;9.996;2022-11-02T07:19:28;5.80;;;1.73;;
25079;SDS011;13071;48.868;9.996;2022-11-02T07:21:54;5.50;;;1.90;;
25079;SDS011;13071;48.868;9.996;2022-11-02T07:24:23;2.95;;;1.90;;
25079;SDS011;13071;48.868;9.996;2022-11-02T07:26:49;3.80;;;1.98;;
25079;SDS011;13071;48.868;9.996;2022-11-02T07:29:16;4.47;;;2.00;;
25079;SDS011;13071;48.868;9.996;2022-11-02T07:31:43;2.10;;;1.67;;
25079;SDS011;13071;48.868;9.996;2022-11-02T07:34:10;2.78;;;1.58;;
25079;SDS011;13071;48.868;9.996;2022-11-02T07:36:37;6.30;;;1.80;;
25079;SDS011;13071;48.868;9.996;2022-11-02T07:39:04;3.88;;;1.65;;
25079;SDS011;13071;48.868;9.996;2022-11-02T07:41:32;3.10;;;1.98;;
25079;SDS011;13071;48.868;9.996;2022-11-02T07:44:00;2.92;;;1.75;;
25079;SDS011;13071;48.868;9.996;2022-11-02T07:46:26;4.25;;;1.50;;
25079;SDS011;13071;48.868;9.996;2022-11-02T07:48:53;3.85;;;1.60;;
25079;SDS011;13071;48.868;9.996;2022-11-02T07:51:20;4.00;;;1.48;;
25079;SDS011;13071;48.868;9.996;2022-11-02T07:53:47;8.13;;;1.60;;
25079;SDS011;13071;48.868;9.996;2022-11-02T07:56:13;1.75;;;1.65;;
25079;SDS011;13071;48.868;9.996;2022-11-02T07:58:41;4.13;;;1.67;;
25079;SDS011;13071;48.868;9.996;2022-11-02T08:01:08;2.20;;;1.45;;
25079;SDS011;13071;48.868;9.996;2022-11-02T08:03:34;5.63;;;1.70;;
25079;SDS011;13071;48.868;9.996;2022-11-02T08:06:01;5.70;;;1.65;;
25079;SDS011;13071;48.868;9.996;2022-11-02T08:08:28;2.55;;;1.52;;
25079;SDS011;13071;48.868;9.996;2022-11-02T08:10:54;4.35;;;1.38;;
25079;SDS011;13071;48.868;9.996;2022-11-02T08:13:29;2.80;;;1.67;;
25079;SDS011;13071;48.868;9.996;2022-11-02T08:15:57;1.45;;;1.30;;
25079;SDS011;13071;48.868;9.996;2022-11-02T08:18:24;3.22;;;1.27;;
25079;SDS011;13071;48.868;9.996;2022-11-02T08:20:53;5.45;;;1.73;;
25079;SDS011;13071;48.868;9.996;2022-11-02T08:23:20;2.05;;;1.40;;
25079;SDS011;13071;48.868;9.996;2022-11-02T08:25:47;2.00;;;1.45;;
25079;SDS011;13071;48.868;9.996;2022-11-02T08:28:16;5.88;;;1.48;;
25079;SDS011;13071;48.868;9.996;2022-11-02T08:30:44;4.05;;;1.55;;
25079;SDS011;13071;48.868;9.996;2022-11-02T08:33:13;4.88;;;1.45;;
25079;SDS011;13071;48.868;9.996;2022-11-02T08:35:42;3.75;;;1.13;;
25079;SDS011;13071;48.868;9.996;2022-11-02T08:38:09;2.65;;;1.40;;
25079;SDS011;13071;48.868;9.996;2022-11-02T08:40:36;4.07;;;1.60;;
25079;SDS011;13071;48.868;9.996;2022-11-02T08:43:04;2.72;;;1.48;;
25079;SDS011;13071;48.868;9.996;2022-11-02T08:45:35;9.90;;;4.05;;
25079;SDS011;13071;48.868;9.996;2022-11-02T08:48:03;10.13;;;4.47;;
25079;SDS011;13071;48.868;9.996;2022-11-02T08:50:32;9.95;;;3.50;;
25079;SDS011;13071;48.868;9.996;2022-11-02T08:52:59;11.65;;;3.00;;
25079;SDS011;13071;48.868;9.996;2022-11-02T08:55:26;8.70;;;2.55;;
25079;SDS011;13071;48.868;9.996;2022-11-02T08:57:53;8.30;;;2.88;;
25079;SDS011;13071;48.868;9.996;2022-11-02T09:00:22;4.93;;;2.47;;
25079;SDS011;13071;48.868;9.996;2022-11-02T09:03:00;8.73;;;3.50;;
25079;SDS011;13071;48.868;9.996;2022-11-02T09:05:28;7.30;;;3.50;;
25079;SDS011;13071;48.868;9.996;2022-11-02T09:07:57;8.32;;;3.40;;
25079;SDS011;13071;48.868;9.996;2022-11-02T09:10:25;10.85;;;3.00;;
25079;SDS011;13071;48.868;9.996;2022-11-02T09:12:52;3.38;;;2.30;;
25079;SDS011;13071;48.868;9.996;2022-11-02T09:15:19;5.85;;;2.55;;
25079;SDS011;13071;48.868;9.996;2022-11-02T09:17:46;5.55;;;2.15;;
25079;SDS011;13071;48.868;9.996;2022-11-02T09:20:13;2.80;;;1.90;;
25079;SDS011;13071;48.868;9.996;2022-11-02T09:22:40;5.60;;;2.40;;
25079;SDS011;13071;48.868;9.996;2022-11-02T09:25:08;4.93;;;2.03;;
25079;SDS011;13071;48.868;9.996;2022-11-02T09:27:36;6.38;;;1.80;;
25079;SDS011;13071;48.868;9.996;2022-11-02T09:30:03;4.20;;;2.00;;
25079;SDS011;13071;48.868;9.996;2022-11-02T09:32:30;3.70;;;1.65;;
25079;SDS011;13071;48.868;9.996;2022-11-02T09:34:57;4.10;;;1.85;;
25079;SDS011;13071;48.868;9.996;2022-11-02T09:37:25;6.10;;;2.05;;
25079;SDS011;13071;48.868;9.996;2022-11-02T09:39:52;6.20;;;1.60;;
25079;SDS011;13071;48.868;9.996;2022-11-02T09:42:21;6.40;;;1.55;;
25079;SDS011;13071;48.868;9.996;2022-11-02T09:44:52;4.65;;;1.38;;
25079;SDS011;13071;48.868;9.996;2022-11-02T09:47:24;6.20;;;1.80;;
25079;SDS011;13071;48.868;9.996;2022-11-02T09:49:53;4.55;;;1.25;;
25079;SDS011;13071;48.868;9.996;2022-11-02T09:52:24;5.38;;;1.48;;
25079;SDS011;13071;48.868;9.996;2022-11-02T09:54:56;10.30;;;1.48;;
25079;SDS011;13071;48.868;9.996;2022-11-02T09:57:27;2.75;;;1.35;;
25079;SDS011;13071;48.868;9.996;2022-11-02T09:59:56;2.45;;;1.30;;
25079;SDS011;13071;48.868;9.996;2022-11-02T10:02:25;3.20;;;1.30;;
25079;SDS011;13071;48.868;9.996;2022-11-02T10:05:06;5.28;;;1.60;;
25079;SDS011;13071;48.868;9.996;2022-11-02T10:07:52;7.80;;;1.58;;
25079;SDS011;13071;48.868;9.996;2022-11-02T10:10:31;2.10;;;1.10;;
25079;SDS011;13071;48.868;9.996;2022-11-02T10:13:05;4.72;;;1.52;;
25079;SDS011;13071;48.868;9.996;2022-11-02T10:15:42;2.53;;;1.30;;
25079;SDS011;13071;48.868;9.996;2022-11-02T10:18:14;7.22;;;1.50;;
25079;SDS011;13071;48.868;9.996;2022-11-02T10:20:45;4.88;;;1.70;;
25079;SDS011;13071;48.868;9.996;2022-11-02T10:23:14;5.40;;;1.40;;
25079;SDS011;13071;48.868;9.996;2022-11-02T10:25:47;4.32;;;1.40;;
25079;SDS011;13071;48.868;9.996;2022-11-02T10:28:17;7.78;;;1.60;;
25079;SDS011;13071;48.868;9.996;2022-11-02T10:30:46;2.30;;;1.35;;
25079;SDS011;13071;48.868;9.996;2022-11-02T10:33:14;6.30;;;1.35;;
25079;SDS011;13071;48.868;9.996;2022-11-02T10:35:45;5.47;;;2.00;;
25079;SDS011;13071;48.868;9.996;2022-11-02T10:38:25;6.15;;;2.00;;
25079;SDS011;13071;48.868;9.996;2022-11-02T10:41:05;4.13;;;1.40;;
25079;SDS011;13071;48.868;9.996;2022-11-02T10:43:53;6.13;;;1.35;;
25079;SDS011;13071;48.868;9.996;2022-11-02T10:46:36;6.85;;;1.48;;
25079;SDS011;13071;48.868;9.996;2022-11-02T10:49:15;3.40;;;1.70;;
25079;SDS011;13071;48.868;9.996;2022-11-02T10:51:54;1.90;;;1.02;;
25079;SDS011;13071;48.868;9.996;2022-11-02T10:54:21;2.20;;;1.30;;
25079;SDS011;13071;48.868;9.996;2022-11-02T10:56:48;9.70;;;1.33;;
25079;SDS011;13071;48.868;9.996;2022-11-02T10:59:16;2.85;;;1.25;;
25079;SDS011;13071;48.868;9.996;2022-11-02T11:01:44;2.05;;;1.10;;
25079;SDS011;13071;48.868;9.996;2022-11-02T11:04:19;2.53;;;1.35;;
25079;SDS011;13071;48.868;9.996;2022-11-02T11:06:47;3.45;;;1.55;;
25079;SDS011;13071;48.868;9.996;2022-11-02T11:09:15;3.80;;;1.77;;
25079;SDS011;13071;48.868;9.996;2022-11-02T11:11:51;4.43;;;1.92;;
25079;SDS011;13071;48.868;9.996;2022-11-02T11:14:20;2.17;;;1.20;;
25079;SDS011;13071;48.868;9.996;2022-11-02T11:16:50;6.13;;;1.60;;
25079;SDS011;13071;48.868;9.996;2022-11-02T11:19:20;4.53;;;1.50;;
25079;SDS011;13071;48.868;9.996;2022-11-02T11:21:49;5.28;;;1.75;;
25079;SDS011;13071;48.868;9.996;2022-11-02T11:24:21;6.90;;;1.33;;
25079;SDS011;13071;48.868;9.996;2022-11-02T11:29:46;5.75;;;1.52;;
25079;SDS011;13071;48.868;9.996;2022-11-02T11:32:18;4.10;;;1.52;;
25079;SDS011;13071;48.868;9.996;2022-11-02T11:34:55;7.65;;;1.55;;
25079;SDS011;13071;48.868;9.996;2022-11-02T11:37:24;6.00;;;1.63;;
25079;SDS011;13071;48.868;9.996;2022-11-02T11:39:53;7.03;;;1.25;;
25079;SDS011;13071;48.868;9.996;2022-11-02T11:42:23;2.45;;;1.23;;
25079;SDS011;13071;48.868;9.996;2022-11-02T11:44:57;7.40;;;1.50;;
25079;SDS011;13071;48.868;9.996;2022-11-02T11:47:27;5.07;;;1.13;;
25079;SDS011;13071;48.868;9.996;2022-11-02T11:49:59;3.38;;;1.10;;
25079;SDS011;13071;48.868;9.996;2022-11-02T11:52:28;3.42;;;1.67;;
25079;SDS011;13071;48.868;9.996;2022-11-02T11:54:56;3.85;;;1.02;;
25079;SDS011;13071;48.868;9.996;2022-11-02T11:57:25;1.10;;;1.00;;
25079;SDS011;13071;48.868;9.996;2022-11-02T11:59:56;5.90;;;1.45;;
25079;SDS011;13071;48.868;9.996;2022-11-02T12:02:26;5.10;;;1.17;;
25079;SDS011;13071;48.868;9.996;2022-11-02T12:04:58;4.03;;;1.30;;
25079;SDS011;13071;48.868;9.996;2022-11-02T12:07:30;3.55;;;1.15;;
25079;SDS011;13071;48.868;9.996;2022-11-02T12:10:08;2.65;;;1.40;;
25079;SDS011;13071;48.868;9.996;2022-11-02T12:12:45;4.20;;;1.42;;
25079;SDS011;13071;48.868;9.996;2022-11-02T12:15:29;1.67;;;1.08;;
25079;SDS011;13071;48.868;9.996;2022-11-02T12:18:08;5.22;;;1.13;;
25079;SDS011;13071;48.868;9.996;2022-11-02T12:20:52;3.05;;;1.30;;
25079;SDS011;13071;48.868;9.996;2022-11-02T12:23:31;1.85;;;1.08;;
25079;SDS011;13071;48.868;9.996;2022-11-02T12:26:18;3.67;;;1.27;;
25079;SDS011;13071;48.868;9.996;2022-11-02T12:28:57;1.95;;;1.23;;
25079;SDS011;13071;48.868;9.996;2022-11-02T12:31:35;2.78;;;1.15;;
25079;SDS011;13071;48.868;9.996;2022-11-02T12:34:12;3.20;;;1.38;;
25079;SDS011;13071;48.868;9.996;2022-11-02T12:36:53;5.80;;;1.20;;
25079;SDS011;13071;48.868;9.996;2022-11-02T12:39:32;5.80;;;1.50;;
25079;SDS011;13071;48.868;9.996;2022-11-02T12:42:16;3.60;;;1.27;;
25079;SDS011;13071;48.868;9.996;2022-11-02T12:44:54;4.13;;;1.30;;
25079;SDS011;13071;48.868;9.996;2022-11-02T12:47:36;4.70;;;1.70;;
25079;SDS011;13071;48.868;9.996;2022-11-02T12:50:16;4.95;;;1.45;;
25079;SDS011;13071;48.868;9.996;2022-11-02T12:52:52;4.78;;;1.13;;
25079;SDS011;13071;48.868;9.996;2022-11-02T12:55:29;4.30;;;1.05;;
25079;SDS011;13071;48.868;9.996;2022-11-02T12:57:59;2.63;;;1.00;;
25079;SDS011;13071;48.868;9.996;2022-11-02T13:00:29;1.98;;;1.25;;
25079;SDS011;13071;48.868;9.996;2022-11-02T13:03:01;2.95;;;1.13;;
25079;SDS011;13071;48.868;9.996;2022-11-02T13:05:33;2.67;;;1.10;;
25079;SDS011;13071;48.868;9.996;2022-11-02T13:08:05;4.28;;;1.42;;
25079;SDS011;13071;48.868;9.996;2022-11-02T13:10:41;4.55;;;1.30;;
25079;SDS011;13071;48.868;9.996;2022-11-02T13:13:12;3.38;;;1.00;;
25079;SDS011;13071;48.868;9.996;2022-11-02T13:15:42;1.45;;;1.00;;
25079;SDS011;13071;48.868;9.996;2022-11-02T13:18:14;5.68;;;1.10;;
25079;SDS011;13071;48.868;9.996;2022-11-02T13:20:46;3.22;;;0.95;;
25079;SDS011;13071;48.868;9.996;2022-11-02T13:23:18;6.35;;;1.30;;
25079;SDS011;13071;48.868;9.996;2022-11-02T13:25:55;3.60;;;1.27;;
25079;SDS011;13071;48.868;9.996;2022-11-02T13:28:26;5.65;;;1.70;;
25079;SDS011;13071;48.868;9.996;2022-11-02T13:30:59;3.08;;;1.40;;
25079;SDS011;13071;48.868;9.996;2022-11-02T13:33:29;6.20;;;1.05;;
25079;SDS011;13071;48.868;9.996;2022-11-02T13:36:05;2.33;;;1.42;;
25079;SDS011;13071;48.868;9.996;2022-11-02T13:38:33;1.80;;;1.20;;
25079;SDS011;13071;48.868;9.996;2022-11-02T13:44:15;8.25;;;1.10;;
25079;SDS011;13071;48.868;9.996;2022-11-02T13:47:27;3.38;;;1.20;;
25079;SDS011;13071;48.868;9.996;2022-11-02T13:50:11;3.28;;;1.35;;
25079;SDS011;13071;48.868;9.996;2022-11-02T13:52:43;2.30;;;1.33;;
25079;SDS011;13071;48.868;9.996;2022-11-02T13:55:14;4.60;;;0.93;;
25079;SDS011;13071;48.868;9.996;2022-11-02T13:57:45;6.88;;;1.40;;
25079;SDS011;13071;48.868;9.996;2022-11-02T14:00:28;5.15;;;0.95;;
25079;SDS011;13071;48.868;9.996;2022-11-02T14:03:01;4.65;;;0.90;;
25079;SDS011;13071;48.868;9.996;2022-11-02T14:05:33;1.75;;;1.10;;
25079;SDS011;13071;48.868;9.996;2022-11-02T14:08:06;7.75;;;1.17;;
25079;SDS011;13071;48.868;9.996;2022-11-02T14:10:37;3.65;;;1.10;;
25079;SDS011;13071;48.868;9.996;2022-11-02T14:13:08;5.13;;;1.42;;
25079;SDS011;13071;48.868;9.996;2022-11-02T14:15:39;2.97;;;1.20;;
25079;SDS011;13071;48.868;9.996;2022-11-02T14:18:11;6.47;;;1.55;;
25079;SDS011;13071;48.868;9.996;2022-11-02T14:20:41;5.13;;;1.20;;
25079;SDS011;13071;48.868;9.996;2022-11-02T14:29:07;3.90;;;1.27;;
25079;SDS011;13071;48.868;9.996;2022-11-02T14:32:01;7.45;;;1.33;;
25079;SDS011;13071;48.868;9.996;2022-11-02T14:34:36;3.65;;;1.02;;
25079;SDS011;13071;48.868;9.996;2022-11-02T14:37:19;5.40;;;1.00;;
25079;SDS011;13071;48.868;9.996;2022-11-02T14:40:07;5.82;;;1.00;;
25079;SDS011;13071;48.868;9.996;2022-11-02T14:42:49;3.65;;;1.10;;
25079;SDS011;13071;48.868;9.996;2022-11-02T14:45:27;4.32;;;1.05;;
25079;SDS011;13071;48.868;9.996;2022-11-02T14:48:10;3.35;;;1.10;;
25079;SDS011;13071;48.868;9.996;2022-11-02T14:50:40;5.28;;;1.13;;
25079;SDS011;13071;48.868;9.996;2022-11-02T14:53:15;6.50;;;1.17;;
25079;SDS011;13071;48.868;9.996;2022-11-02T14:55:50;2.17;;;1.00;;
25079;SDS011;13071;48.868;9.996;2022-11-02T14:58:19;4.35;;;1.10;;
25079;SDS011;13071;48.868;9.996;2022-11-02T15:00:54;1.98;;;1.05;;
25079;SDS011;13071;48.868;9.996;2022-11-02T15:06:12;3.42;;;1.05;;
25079;SDS011;13071;48.868;9.996;2022-11-02T15:08:52;4.00;;;1.13;;
25079;SDS011;13071;48.868;9.996;2022-11-02T15:11:41;3.65;;;1.23;;
25079;SDS011;13071;48.868;9.996;2022-11-02T15:20:29;2.90;;;1.08;;
25079;SDS011;13071;48.868;9.996;2022-11-02T15:22:59;5.43;;;1.25;;
25079;SDS011;13071;48.868;9.996;2022-11-02T15:25:39;1.52;;;1.10;;
25079;SDS011;13071;48.868;9.996;2022-11-02T15:28:12;3.45;;;1.50;;
25079;SDS011;13071;48.868;9.996;2022-11-02T15:30:41;9.27;;;1.75;;
25079;SDS011;13071;48.868;9.996;2022-11-02T15:33:10;6.95;;;1.55;;